Time;durP1;ratioP1;P1;durP2;ratioP2;P2;SDS_P1;SDS_P2;PMS_P1;PMS_P2;Temp;Humidity;BMP_temperature;BMP_pressure;BME280_temperature;BME280_humidity;BME280_pressure;Samples;Min_cycle;Max_cycle;Signal;HPM_P1;HPM_P2
2023/09/19 00:00:58;;;;;;;4.10;3.40;;;;;;;14.96;89.35;95612.30;106840;1274;24279;-79
2023/09/19 00:03:38;;;;;;;8.10;3.90;;;;;;;14.97;88.58;95613.70;106739;1274;25320;-78
2023/09/19 00:06:08;;;;;;;4.60;4.00;;;;;;;15.00;89.37;95607.23;106845;1274;25523;-78
2023/09/19 00:08:37;;;;;;;8.80;3.90;;;;;;;15.05;88.88;95609.87;107020;1255;25480;-79
2023/09/19 00:11:05;;;;;;;9.10;4.30;;;;;;;14.98;88.84;95614.53;106843;1274;22698;-79
2023/09/19 00:13:35;;;;;;;5.30;3.80;;;;;;;14.95;89.05;95611.64;106830;1274;24400;-78
2023/09/19 00:16:11;;;;;;;5.80;4.20;;;;;;;14.92;88.67;95616.16;106842;1256;25521;-79
2023/09/19 00:18:40;;;;;;;8.20;3.80;;;;;;;14.87;89.10;95608.73;106915;1271;22558;-79
2023/09/19 00:21:10;;;;;;;7.50;3.80;;;;;;;14.89;89.26;95600.85;106849;1274;22523;-78
2023/09/19 00:23:40;;;;;;;5.50;3.70;;;;;;;14.92;89.22;95588.53;106913;1262;24387;-79
2023/09/19 00:26:09;;;;;;;13.30;4.30;;;;;;;14.92;89.18;95579.13;106881;1274;22518;-78
2023/09/19 00:28:37;;;;;;;8.30;4.40;;;;;;;14.91;89.50;95578.84;106690;1274;22545;-78
2023/09/19 00:31:08;;;;;;;6.20;4.10;;;;;;;14.98;89.92;95577.54;106845;1274;24064;-77
2023/09/19 00:33:37;;;;;;;4.40;3.50;;;;;;;15.00;89.58;95585.24;107081;1274;25620;-77
2023/09/19 00:36:06;;;;;;;8.40;4.50;;;;;;;14.98;89.75;95586.92;107023;1274;24281;-78
2023/09/19 00:38:34;;;;;;;9.70;4.90;;;;;;;15.00;90.78;95590.21;106906;1274;22645;-79
2023/09/19 00:41:02;;;;;;;6.80;4.00;;;;;;;15.07;90.83;95591.20;106850;1274;22579;-79
2023/09/19 00:43:34;;;;;;;7.10;4.30;;;;;;;15.08;90.01;95590.98;106796;1274;25269;-79
2023/09/19 00:46:02;;;;;;;13.00;4.40;;;;;;;15.12;90.21;95589.23;106941;1274;24932;-79
2023/09/19 00:48:31;;;;;;;7.40;4.10;;;;;;;15.13;89.63;95585.27;106660;1274;22510;-78
2023/09/19 00:51:04;;;;;;;9.30;4.10;;;;;;;15.08;89.88;95582.64;106804;1274;22642;-79
2023/09/19 00:53:34;;;;;;;5.00;4.00;;;;;;;15.05;90.30;95580.11;106724;1273;24696;-78
2023/09/19 00:56:06;;;;;;;6.40;4.10;;;;;;;15.11;90.68;95580.95;106892;1274;22586;-79
2023/09/19 00:58:37;;;;;;;6.00;4.20;;;;;;;15.14;90.31;95582.61;106846;1274;22777;-79
2023/09/19 01:01:06;;;;;;;6.40;4.10;;;;;;;15.17;89.90;95584.64;106849;1273;23103;-79
2023/09/19 01:03:40;;;;;;;5.90;4.00;;;;;;;15.24;90.12;95584.91;106869;1273;22513;-78
2023/09/19 01:06:09;;;;;;;10.30;4.00;;;;;;;15.32;90.14;95589.20;106873;1274;22516;-78
2023/09/19 01:08:39;;;;;;;6.70;4.00;;;;;;;15.36;89.99;95592.95;106878;1273;22507;-78
2023/09/19 01:11:15;;;;;;;4.10;3.70;;;;;;;15.40;89.54;95591.43;106880;1274;22521;-79
2023/09/19 01:14:18;;;;;;;5.20;3.80;;;;;;;15.30;89.17;95591.79;107123;1273;24366;-79
2023/09/19 01:17:09;;;;;;;6.00;4.00;;;;;;;15.19;89.46;95576.91;106527;1281;25541;-79
2023/09/19 01:20:15;;;;;;;8.10;3.90;;;;;;;15.16;90.06;95580.58;107006;1274;22523;-78
2023/09/19 01:23:17;;;;;;;7.00;4.10;;;;;;;15.14;89.50;95588.08;107059;1274;25373;-78
2023/09/19 01:25:48;;;;;;;9.30;4.40;;;;;;;15.18;90.20;95589.02;107106;1273;24106;-78
2023/09/19 01:28:26;;;;;;;5.00;3.50;;;;;;;15.28;90.51;95586.17;106734;1274;22596;-78
2023/09/19 01:31:00;;;;;;;7.80;4.00;;;;;;;15.27;89.82;95581.98;107090;1273;25494;-77
2023/09/19 01:33:51;;;;;;;7.40;4.00;;;;;;;15.22;89.90;95575.95;107032;1274;25561;-78
2023/09/19 01:36:19;;;;;;;7.60;4.10;;;;;;;15.22;90.34;95579.11;107120;1263;22809;-77
2023/09/19 01:38:48;;;;;;;8.00;4.30;;;;;;;15.22;89.71;95576.09;106935;1272;25412;-78
2023/09/19 01:41:25;;;;;;;8.40;4.20;;;;;;;15.12;90.36;95574.20;106841;1274;24227;-78
2023/09/19 01:43:54;;;;;;;7.90;4.90;;;;;;;15.12;90.91;95573.09;106876;1274;25337;-78
2023/09/19 01:46:34;;;;;;;13.20;4.20;;;;;;;15.23;91.34;95572.89;107075;1274;22580;-79
2023/09/19 01:49:47;;;;;;;6.70;4.30;;;;;;;15.33;90.66;95568.61;106931;1274;25482;-78
2023/09/19 01:52:19;;;;;;;7.20;4.70;;;;;;;15.30;89.73;95560.74;106574;1274;24349;-79
2023/09/19 01:54:55;;;;;;;5.80;4.00;;;;;;;15.26;89.89;95556.64;106727;1274;22644;-78
2023/09/19 01:57:29;;;;;;;4.70;3.70;;;;;;;15.23;90.28;95565.27;107089;1274;22662;-78
2023/09/19 02:00:06;;;;;;;11.30;4.50;;;;;;;15.22;89.86;95560.52;106962;1273;22535;-78
2023/09/19 02:02:50;;;;;;;6.90;4.40;;;;;;;15.19;90.16;95555.85;106934;1274;23146;-78
2023/09/19 02:05:27;;;;;;;8.40;4.20;;;;;;;15.18;91.19;95557.47;106848;1274;25298;-78
2023/09/19 02:07:56;;;;;;;6.20;4.40;;;;;;;15.26;91.42;95558.06;106740;1274;22531;-78
2023/09/19 02:10:24;;;;;;;8.30;4.30;;;;;;;15.26;90.75;95562.50;106843;1274;26549;-78
2023/09/19 02:12:53;;;;;;;7.10;4.30;;;;;;;15.27;90.82;95562.64;106811;1273;25274;-78
2023/09/19 02:15:22;;;;;;;11.70;3.80;;;;;;;15.29;91.42;95570.88;106858;1273;22552;-78
2023/09/19 02:17:50;;;;;;;5.40;4.10;;;;;;;15.34;91.52;95564.84;106919;1274;25425;-78
2023/09/19 02:20:20;;;;;;;4.90;3.80;;;;;;;15.42;91.05;95562.23;106846;1274;24219;-78
2023/09/19 02:22:49;;;;;;;5.50;4.00;;;;;;;15.45;90.89;95560.90;106879;1274;25564;-78
2023/09/19 02:25:19;;;;;;;6.60;4.00;;;;;;;15.50;90.57;95551.83;106900;1274;24196;-78
2023/09/19 02:27:48;;;;;;;7.50;4.00;;;;;;;15.48;90.03;95555.28;106840;1274;24266;-78
2023/09/19 02:30:17;;;;;;;5.30;3.60;;;;;;;15.46;90.05;95556.27;106752;1274;22516;-78
2023/09/19 02:32:46;;;;;;;7.10;4.20;;;;;;;15.43;90.67;95548.21;106939;1273;22733;-78
2023/09/19 02:35:16;;;;;;;8.30;4.20;;;;;;;15.45;91.02;95548.83;106867;1274;24219;-78
2023/09/19 02:37:44;;;;;;;5.70;3.80;;;;;;;15.55;91.08;95550.23;106929;1273;25386;-79
2023/09/19 02:40:19;;;;;;;8.80;4.30;;;;;;;15.54;90.00;95549.36;106984;1274;25624;-78
2023/09/19 02:42:49;;;;;;;6.70;4.60;;;;;;;15.44;90.14;95548.02;106711;1272;22786;-78
2023/09/19 02:45:19;;;;;;;9.90;4.20;;;;;;;15.39;91.08;95542.52;106780;1273;22638;-78
2023/09/19 02:47:47;;;;;;;4.90;3.60;;;;;;;15.40;90.83;95542.12;106881;1274;22597;-78
2023/09/19 02:50:17;;;;;;;7.00;4.20;;;;;;;15.38;90.76;95542.55;106780;1274;24219;-78
2023/09/19 02:52:49;;;;;;;6.70;4.30;;;;;;;15.41;91.29;95537.83;106909;1274;22522;-78
2023/09/19 02:55:19;;;;;;;6.10;4.00;;;;;;;15.50;91.56;95530.92;106833;1274;25296;-78
2023/09/19 02:57:49;;;;;;;9.80;4.50;;;;;;;15.56;90.84;95526.42;106826;1273;25308;-78
2023/09/19 03:00:22;;;;;;;6.40;3.70;;;;;;;15.51;90.26;95524.14;106671;1274;22570;-78
2023/09/19 03:02:54;;;;;;;7.80;4.30;;;;;;;15.53;90.75;95516.10;106818;1274;23852;-78
2023/09/19 03:05:23;;;;;;;6.80;3.90;;;;;;;15.54;90.19;95511.97;106674;1274;24268;-78
2023/09/19 03:07:52;;;;;;;6.40;4.30;;;;;;;15.49;89.83;95507.40;106959;1274;25419;-79
2023/09/19 03:10:22;;;;;;;6.50;3.80;;;;;;;15.52;90.30;95505.33;106757;1273;24214;-78
2023/09/19 03:12:50;;;;;;;5.60;4.30;;;;;;;15.50;90.06;95505.41;106865;1274;22621;-78
2023/09/19 03:15:18;;;;;;;8.80;4.30;;;;;;;15.50;90.66;95498.48;106662;1274;24406;-78
2023/09/19 03:17:49;;;;;;;4.60;3.70;;;;;;;15.52;90.87;95498.23;106685;1274;24484;-78
2023/09/19 03:20:22;;;;;;;9.80;3.70;;;;;;;15.53;90.80;95488.80;107007;1274;24207;-78
2023/09/19 03:22:51;;;;;;;6.00;4.30;;;;;;;15.52;90.45;95493.95;106875;1274;25469;-78
2023/09/19 03:25:22;;;;;;;6.40;3.60;;;;;;;15.51;90.46;95493.84;107148;1273;24475;-78
2023/09/19 03:27:51;;;;;;;5.50;3.70;;;;;;;15.47;90.65;95490.96;106918;1274;22589;-78
2023/09/19 03:30:20;;;;;;;6.90;4.10;;;;;;;15.52;90.96;95489.20;106694;1274;22575;-78
2023/09/19 03:32:52;;;;;;;7.90;4.30;;;;;;;15.52;90.21;95484.19;106828;1274;22671;-78
2023/09/19 03:35:20;;;;;;;10.80;4.20;;;;;;;15.49;90.37;95482.90;106685;1275;25342;-78
2023/09/19 03:37:49;;;;;;;6.90;3.80;;;;;;;15.45;89.81;95481.31;106685;1274;22531;-78
2023/09/19 03:40:20;;;;;;;4.90;4.10;;;;;;;15.40;89.93;95475.83;107076;1274;24448;-77
2023/09/19 03:42:48;;;;;;;6.70;4.00;;;;;;;15.38;89.81;95477.86;106702;1273;26792;-77
2023/09/19 03:45:18;;;;;;;7.20;4.00;;;;;;;15.30;90.13;95473.02;106651;1274;23953;-77
2023/09/19 03:47:51;;;;;;;5.80;3.80;;;;;;;15.28;90.19;95477.17;106859;1273;22578;-81
2023/09/19 03:50:21;;;;;;;5.50;4.10;;;;;;;15.22;89.95;95470.18;106807;1274;22521;-78
2023/09/19 03:52:49;;;;;;;7.70;4.60;;;;;;;15.16;90.72;95468.44;106976;1274;25498;-78
2023/09/19 03:55:18;;;;;;;6.90;4.20;;;;;;;15.10;90.34;95468.83;106707;1274;24493;-78
2023/09/19 03:57:50;;;;;;;6.80;4.10;;;;;;;15.05;90.88;95463.89;106784;1274;22545;-78
2023/09/19 04:00:21;;;;;;;5.00;3.70;;;;;;;15.08;91.25;95465.55;106883;1274;22554;-78
2023/09/19 04:02:52;;;;;;;8.40;3.80;;;;;;;15.10;91.11;95461.56;106683;1274;25371;-78
2023/09/19 04:05:20;;;;;;;6.60;4.10;;;;;;;15.09;91.05;95469.91;106717;1274;24361;-78
2023/09/19 04:07:50;;;;;;;7.20;4.30;;;;;;;15.03;91.35;95459.69;106799;1267;23793;-79
2023/09/19 04:10:18;;;;;;;6.00;4.30;;;;;;;15.07;91.69;95460.98;106823;1274;22658;-78
2023/09/19 04:12:54;;;;;;;8.40;4.20;;;;;;;15.11;91.42;95460.11;106792;1274;22590;-78
2023/09/19 04:15:24;;;;;;;12.10;4.70;;;;;;;15.10;91.03;95458.55;106855;1273;23007;-78
2023/09/19 04:17:55;;;;;;;8.50;4.20;;;;;;;15.12;91.14;95464.67;106856;1273;24090;-78
2023/09/19 04:20:24;;;;;;;6.00;4.40;;;;;;;15.11;91.30;95461.36;106921;1273;22647;-79
2023/09/19 04:22:52;;;;;;;10.50;4.40;;;;;;;15.13;91.74;95459.48;106701;1273;25335;-78
2023/09/19 04:25:20;;;;;;;7.20;4.00;;;;;;;15.19;92.02;95459.62;106920;1273;22524;-79
2023/09/19 04:27:49;;;;;;;7.60;3.70;;;;;;;15.23;91.69;95462.31;106874;1274;23123;-79
2023/09/19 04:30:17;;;;;;;11.60;4.70;;;;;;;15.24;91.30;95462.98;106813;1274;24437;-79
2023/09/19 04:32:50;;;;;;;6.50;4.60;;;;;;;15.26;91.74;95456.52;106858;1273;24404;-79
2023/09/19 04:35:19;;;;;;;5.80;4.40;;;;;;;15.34;92.37;95457.96;106801;1273;22870;-79
2023/09/19 04:37:48;;;;;;;4.80;4.40;;;;;;;15.41;91.92;95452.75;106841;1274;24539;-79
2023/09/19 04:40:19;;;;;;;6.80;4.30;;;;;;;15.42;91.12;95447.95;106971;1264;25817;-79
2023/09/19 04:42:57;;;;;;;9.50;4.50;;;;;;;15.40;90.81;95452.10;106926;1273;22539;-79
2023/09/19 04:45:27;;;;;;;5.90;4.60;;;;;;;15.38;90.50;95454.63;106845;1274;24070;-79
2023/09/19 04:47:56;;;;;;;7.60;4.50;;;;;;;15.36;90.19;95458.10;106894;1274;25333;-79
2023/09/19 04:50:27;;;;;;;6.90;5.20;;;;;;;15.34;90.05;95458.84;107062;1274;22531;-79
2023/09/19 04:52:56;;;;;;;8.00;5.50;;;;;;;15.34;89.82;95462.23;106843;1274;22634;-80
2023/09/19 04:55:24;;;;;;;7.60;5.40;;;;;;;15.29;89.19;95466.69;106847;1273;22533;-80
2023/09/19 04:57:53;;;;;;;5.50;4.90;;;;;;;15.29;89.69;95461.91;106820;1274;24207;-79
2023/09/19 05:00:24;;;;;;;7.20;4.80;;;;;;;15.30;89.38;95462.02;106942;1273;24221;-79
2023/09/19 05:02:56;;;;;;;8.40;5.50;;;;;;;15.30;88.91;95464.33;106677;1274;22525;-80
2023/09/19 05:05:26;;;;;;;6.30;5.10;;;;;;;15.29;88.94;95463.30;106849;1273;22549;-78
2023/09/19 05:07:55;;;;;;;6.30;5.00;;;;;;;15.32;88.97;95460.56;106864;1274;22520;-79
2023/09/19 05:10:24;;;;;;;7.50;5.40;;;;;;;15.33;88.85;95460.69;106876;1273;24050;-79
2023/09/19 05:12:55;;;;;;;6.70;5.60;;;;;;;15.34;88.81;95460.80;106862;1273;22572;-77
2023/09/19 05:15:23;;;;;;;6.20;5.10;;;;;;;15.35;88.75;95460.77;107089;1273;24252;-79
2023/09/19 05:17:54;;;;;;;11.40;5.00;;;;;;;15.34;88.51;95462.40;107013;1274;22565;-78
2023/09/19 05:20:37;;;;;;;6.50;4.90;;;;;;;15.30;88.30;95459.91;107039;1274;22552;-76
2023/09/19 05:23:13;;;;;;;5.50;4.80;;;;;;;15.30;88.55;95459.55;106764;1274;25344;-78
2023/09/19 05:25:42;;;;;;;9.10;6.00;;;;;;;15.30;88.34;95453.72;106802;1274;22553;-77
2023/09/19 05:28:14;;;;;;;6.20;5.50;;;;;;;15.31;88.33;95452.79;106901;1274;23881;-78
2023/09/19 05:30:43;;;;;;;7.60;5.50;;;;;;;15.27;88.15;95457.19;106807;1273;23954;-79
2023/09/19 05:33:15;;;;;;;8.20;5.50;;;;;;;15.24;88.33;95455.02;106853;1273;24387;-78
2023/09/19 05:35:43;;;;;;;7.60;5.30;;;;;;;15.25;88.40;95455.33;106854;1273;25517;-79
2023/09/19 05:38:12;;;;;;;6.40;5.40;;;;;;;15.27;88.95;95453.46;106728;1274;22587;-78
2023/09/19 05:40:42;;;;;;;7.30;5.60;;;;;;;15.31;88.71;95451.36;106879;1273;24397;-78
2023/09/19 05:43:10;;;;;;;9.10;5.50;;;;;;;15.32;88.69;95454.70;106804;1274;25660;-78
2023/09/19 05:45:40;;;;;;;7.20;5.10;;;;;;;15.38;88.93;95455.35;106864;1273;22649;-79
2023/09/19 05:48:14;;;;;;;6.60;4.90;;;;;;;15.43;88.97;95447.86;106856;1273;25645;-78
2023/09/19 05:50:43;;;;;;;7.10;5.30;;;;;;;15.50;88.55;95443.72;106854;1274;23011;-75
2023/09/19 05:53:14;;;;;;;7.80;5.30;;;;;;;15.52;88.41;95445.75;107086;1258;22642;-77
2023/09/19 05:55:43;;;;;;;7.70;5.40;;;;;;;15.52;88.24;95454.61;107064;1273;22643;-77
2023/09/19 05:58:14;;;;;;;9.40;5.70;;;;;;;15.57;88.71;95461.30;106841;1273;23950;-78
2023/09/19 06:00:44;;;;;;;8.50;6.20;;;;;;;15.60;88.22;95458.71;106794;1274;22540;-77
2023/09/19 06:03:14;;;;;;;10.10;6.00;;;;;;;15.58;88.31;95459.13;106891;1274;22524;-77
2023/09/19 06:05:43;;;;;;;6.90;5.60;;;;;;;15.62;88.41;95459.52;106807;1274;22801;-78
2023/09/19 06:08:11;;;;;;;9.00;6.30;;;;;;;15.59;87.82;95461.59;106809;1274;25470;-78
2023/09/19 06:10:40;;;;;;;11.20;5.10;;;;;;;15.54;87.89;95464.64;106776;1274;23738;-77
2023/09/19 06:13:09;;;;;;;10.10;5.50;;;;;;;15.49;88.06;95464.85;106803;1274;22651;-77
2023/09/19 06:15:38;;;;;;;6.80;4.80;;;;;;;15.48;88.22;95459.02;106805;1274;24264;-77
2023/09/19 06:18:14;;;;;;;6.70;4.70;;;;;;;15.54;88.55;95462.69;106874;1273;22732;-77
2023/09/19 06:20:44;;;;;;;6.00;4.80;;;;;;;15.55;87.71;95460.01;106868;1273;22528;-76
2023/09/19 06:23:13;;;;;;;6.00;5.10;;;;;;;15.58;88.47;95466.05;107047;1274;24257;-78
2023/09/19 06:25:43;;;;;;;5.70;5.10;;;;;;;15.64;88.96;95459.09;106961;1274;22532;-79
2023/09/19 06:28:16;;;;;;;5.90;4.90;;;;;;;15.64;88.75;95463.34;107047;1274;22538;-76
2023/09/19 06:30:45;;;;;;;6.70;5.20;;;;;;;15.61;88.73;95465.79;106972;1273;24365;-75
2023/09/19 06:33:14;;;;;;;8.20;5.30;;;;;;;15.64;88.67;95468.34;106834;1274;22531;-78
2023/09/19 06:35:46;;;;;;;8.50;5.70;;;;;;;15.64;89.21;95467.05;106842;1274;25243;-76
2023/09/19 06:38:15;;;;;;;6.70;5.60;;;;;;;15.68;89.42;95461.41;106829;1273;22527;-75
2023/09/19 06:40:43;;;;;;;6.90;4.60;;;;;;;15.74;89.57;95476.45;107087;1274;22607;-77
2023/09/19 06:43:12;;;;;;;5.50;4.50;;;;;;;15.76;88.77;95472.30;106878;1274;22740;-78
2023/09/19 06:45:40;;;;;;;6.50;4.70;;;;;;;15.84;88.94;95483.67;106727;1274;24470;-76
2023/09/19 06:48:10;;;;;;;6.70;5.50;;;;;;;15.95;89.17;95478.05;106807;1274;22785;-77
2023/09/19 06:50:40;;;;;;;5.50;4.90;;;;;;;15.98;88.80;95488.58;106706;1274;22893;-75
2023/09/19 06:53:09;;;;;;;7.30;5.40;;;;;;;16.09;89.25;95484.44;106737;1273;25367;-76
2023/09/19 06:55:38;;;;;;;6.30;5.00;;;;;;;16.19;89.34;95475.67;106749;1273;22524;-77
2023/09/19 06:58:06;;;;;;;6.70;4.80;;;;;;;16.22;88.75;95486.52;106833;1274;22744;-78
2023/09/19 07:00:36;;;;;;;9.90;5.40;;;;;;;16.26;88.48;95483.02;106818;1273;25513;-79
2023/09/19 07:03:07;;;;;;;6.70;5.90;;;;;;;16.37;88.59;95475.40;107315;1273;23225;-78
2023/09/19 07:05:38;;;;;;;7.40;6.10;;;;;;;16.44;87.69;95462.33;107240;1273;25629;-79
2023/09/19 07:08:10;;;;;;;7.50;6.20;;;;;;;16.45;86.77;95467.25;106832;1273;25600;-79
2023/09/19 07:10:40;;;;;;;7.90;6.10;;;;;;;16.41;86.24;95462.98;106882;1273;22524;-78
2023/09/19 07:13:10;;;;;;;7.80;6.60;;;;;;;16.37;86.30;95482.53;106817;1273;25427;-79
2023/09/19 07:15:46;;;;;;;8.80;6.50;;;;;;;16.28;85.61;95480.42;106980;1274;22811;-78
2023/09/19 07:18:16;;;;;;;7.90;6.30;;;;;;;16.12;85.73;95497.24;107160;1274;25376;-79
2023/09/19 07:20:49;;;;;;;10.30;6.80;;;;;;;16.03;86.03;95483.77;106927;1274;25400;-78
2023/09/19 07:23:22;;;;;;;8.90;6.80;;;;;;;16.02;86.23;95519.84;106865;1273;22647;-77
2023/09/19 07:25:51;;;;;;;7.70;6.10;;;;;;;16.00;86.61;95508.73;106899;1274;24254;-76
2023/09/19 07:28:19;;;;;;;7.60;5.50;;;;;;;15.97;86.53;95513.46;106853;1274;25414;-78
2023/09/19 07:30:48;;;;;;;9.20;5.10;;;;;;;15.98;86.89;95525.50;106821;1274;25457;-78
2023/09/19 07:33:16;;;;;;;9.40;5.60;;;;;;;16.01;86.94;95528.37;106929;1274;22661;-77
2023/09/19 07:35:47;;;;;;;7.40;5.20;;;;;;;16.01;86.46;95528.90;106981;1274;22526;-79
2023/09/19 07:38:16;;;;;;;6.60;5.60;;;;;;;16.03;86.59;95525.65;107136;1274;25348;-79
2023/09/19 07:40:45;;;;;;;6.90;5.70;;;;;;;16.03;86.44;95518.02;106911;1274;22693;-81
2023/09/19 07:43:13;;;;;;;6.30;4.90;;;;;;;16.02;85.91;95522.49;106881;1274;22530;-81
2023/09/19 07:45:41;;;;;;;6.40;5.20;;;;;;;16.02;86.18;95524.80;106730;1274;22587;-79
2023/09/19 07:48:14;;;;;;;6.00;4.90;;;;;;;15.98;85.79;95523.19;107097;1274;25428;-79
2023/09/19 07:50:46;;;;;;;6.20;5.20;;;;;;;15.97;86.02;95526.42;106739;1274;22525;-80
2023/09/19 07:53:15;;;;;;;6.90;5.20;;;;;;;15.95;86.68;95521.19;106878;1274;23133;-79
2023/09/19 07:55:43;;;;;;;7.30;5.40;;;;;;;15.93;86.93;95521.96;107084;1274;24218;-80
2023/09/19 07:58:13;;;;;;;8.70;5.70;;;;;;;15.93;86.81;95518.98;106704;1274;24512;-78
2023/09/19 08:00:42;;;;;;;9.30;5.80;;;;;;;15.96;87.18;95526.62;107068;1274;24270;-78
2023/09/19 08:03:14;;;;;;;6.90;5.60;;;;;;;16.00;87.17;95528.95;106785;1274;25345;-79
2023/09/19 08:05:46;;;;;;;7.80;5.40;;;;;;;16.04;87.14;95526.86;106574;1274;223654;-78
2023/09/19 08:08:14;;;;;;;8.20;5.70;;;;;;;16.07;86.96;95528.13;106890;1274;25405;-78
2023/09/19 08:10:48;;;;;;;8.10;5.00;;;;;;;16.09;86.72;95517.59;106774;1274;22624;-78
2023/09/19 08:13:18;;;;;;;8.60;5.50;;;;;;;16.06;86.31;95502.84;106862;1274;24056;-79
2023/09/19 08:15:46;;;;;;;9.40;5.40;;;;;;;16.06;86.67;95505.48;107106;1274;22748;-79
2023/09/19 08:18:15;;;;;;;8.80;5.90;;;;;;;16.09;87.06;95501.63;107162;1274;22713;-80
2023/09/19 08:20:50;;;;;;;7.40;5.70;;;;;;;16.11;87.40;95498.01;107052;1274;24324;-79
2023/09/19 08:23:20;;;;;;;6.70;5.10;;;;;;;16.08;87.35;95498.66;107392;1274;22540;-78
2023/09/19 08:25:48;;;;;;;6.60;5.30;;;;;;;16.14;87.97;95504.94;107343;1274;22576;-80
2023/09/19 08:28:24;;;;;;;7.60;5.90;;;;;;;16.20;88.02;95508.27;106973;1274;22592;-77
2023/09/19 08:30:54;;;;;;;10.10;5.30;;;;;;;16.19;88.23;95507.20;106859;1274;24389;-79
2023/09/19 08:33:23;;;;;;;7.30;5.40;;;;;;;16.30;88.45;95504.67;106803;1274;22534;-78
2023/09/19 08:35:51;;;;;;;8.40;6.00;;;;;;;16.38;87.97;95504.80;106770;1274;22615;-77
2023/09/19 08:38:20;;;;;;;7.40;5.90;;;;;;;16.43;88.15;95499.46;106796;1274;22533;-77
2023/09/19 08:40:48;;;;;;;9.50;6.00;;;;;;;16.51;88.22;95506.40;106810;1274;25493;-77
2023/09/19 08:43:16;;;;;;;7.10;5.80;;;;;;;16.56;87.94;95500.33;106775;1274;22531;-77
2023/09/19 08:45:44;;;;;;;9.80;5.70;;;;;;;16.62;88.17;95499.00;106744;1274;25406;-76
2023/09/19 08:48:39;;;;;;;11.40;6.10;;;;;;;16.73;88.33;95504.40;106758;1274;23017;-76
2023/09/19 08:51:17;;;;;;;7.90;6.10;;;;;;;16.82;87.64;95515.23;106731;1274;22622;-76
2023/09/19 08:54:07;;;;;;;7.50;5.20;;;;;;;16.85;87.15;95509.92;106858;1274;24254;-77
2023/09/19 08:56:39;;;;;;;7.30;5.50;;;;;;;16.80;86.77;95507.84;106866;1274;22996;-79
2023/09/19 08:59:08;;;;;;;7.00;5.90;;;;;;;16.81;87.20;95508.30;106766;1274;25302;-78
2023/09/19 09:01:39;;;;;;;10.10;6.80;;;;;;;16.82;86.99;95495.29;106911;1274;24390;-77
2023/09/19 09:04:09;;;;;;;7.60;6.80;;;;;;;16.88;86.80;95497.36;106796;1274;24400;-77
2023/09/19 09:06:39;;;;;;;8.00;6.70;;;;;;;16.94;87.49;95495.66;106727;1274;22526;-77
2023/09/19 09:09:09;;;;;;;8.40;7.10;;;;;;;16.99;87.95;95496.30;106738;1274;22527;-77
2023/09/19 09:11:39;;;;;;;10.40;6.60;;;;;;;17.09;87.75;95495.16;106784;1274;25522;-78
2023/09/19 09:14:09;;;;;;;8.70;7.00;;;;;;;17.19;87.29;95500.73;108004;1274;25574;-76
2023/09/19 09:16:37;;;;;;;10.10;7.00;;;;;;;17.29;87.37;95496.40;106873;1274;25406;-78
2023/09/19 09:19:05;;;;;;;7.60;6.80;;;;;;;17.34;86.59;95489.95;107033;1274;22554;-79
2023/09/19 09:21:36;;;;;;;9.60;6.50;;;;;;;17.34;86.43;95466.98;107103;1274;22651;-78
2023/09/19 09:24:33;;;;;;;10.40;5.90;;;;;;;17.48;86.96;95463.30;107064;1274;25523;-77
2023/09/19 09:27:07;;;;;;;8.40;5.90;;;;;;;17.60;86.18;95459.88;106814;1274;25559;-77
2023/09/19 09:29:51;;;;;;;8.80;6.20;;;;;;;17.64;85.97;95440.66;106778;1264;25307;-77
2023/09/19 09:32:24;;;;;;;12.10;8.70;;;;;;;17.73;84.76;95446.42;106783;1274;22524;-77
2023/09/19 09:34:59;;;;;;;21.20;10.70;;;;;;;17.82;84.29;95446.37;106774;1274;23885;-77
2023/09/19 09:37:30;;;;;;;13.10;6.70;;;;;;;17.94;84.67;95447.20;106811;1274;24292;-76
2023/09/19 09:43:00;;;;;;;9.80;6.00;;;;;;;18.23;83.42;95438.99;106707;1274;24202;-76
2023/09/19 09:48:03;;;;;;;8.80;4.90;;;;;;;18.48;83.29;95445.33;106785;1274;22526;-76
2023/09/19 09:53:28;;;;;;;6.70;5.00;;;;;;;18.70;82.98;95459.33;106767;1270;22664;-76
2023/09/19 09:56:08;;;;;;;6.60;5.10;;;;;;;18.84;83.45;95468.45;106771;1274;22679;-77
2023/09/19 09:58:49;;;;;;;16.60;6.80;;;;;;;18.97;82.86;95478.08;106847;1274;25401;-76
2023/09/19 10:01:18;;;;;;;7.20;5.40;;;;;;;19.13;81.98;95469.20;107026;1274;22639;-77
2023/09/19 10:03:51;;;;;;;13.70;6.00;;;;;;;19.19;81.82;95466.00;106807;1274;22650;-77
2023/09/19 10:09:12;;;;;;;9.40;6.30;;;;;;;19.30;80.26;95455.62;106858;1274;22524;-77
2023/09/19 10:11:43;;;;;;;9.80;7.10;;;;;;;19.28;79.15;95448.78;106815;1274;22731;-77
2023/09/19 10:14:15;;;;;;;12.70;7.60;;;;;;;19.28;79.62;95446.97;106900;1274;25381;-77
2023/09/19 10:16:48;;;;;;;6.40;5.20;;;;;;;19.27;79.63;95449.52;106860;1259;24282;-77
2023/09/19 10:19:24;;;;;;;7.70;6.30;;;;;;;19.32;79.09;95447.33;106803;1274;25509;-77
2023/09/19 10:21:56;;;;;;;8.10;5.70;;;;;;;19.44;79.35;95443.27;106904;1274;25480;-78
2023/09/19 10:24:26;;;;;;;10.60;6.00;;;;;;;19.49;78.04;95444.55;106810;1274;25493;-77
2023/09/19 10:26:56;;;;;;;9.50;5.90;;;;;;;19.54;78.11;95450.55;106829;1274;25335;-77
2023/09/19 10:29:27;;;;;;;10.00;5.20;;;;;;;19.72;78.41;95446.69;106857;1274;26650;-77
2023/09/19 10:31:58;;;;;;;9.70;4.90;;;;;;;19.89;78.40;95450.92;106819;1274;22937;-77
2023/09/19 10:34:30;;;;;;;7.60;5.10;;;;;;;20.00;77.31;95445.08;106826;1274;25469;-77
2023/09/19 10:37:05;;;;;;;9.80;5.70;;;;;;;20.06;77.34;95444.17;106800;1264;22542;-77
2023/09/19 10:39:38;;;;;;;11.50;4.80;;;;;;;20.20;77.89;95450.16;106806;1274;22693;-76
2023/09/19 10:42:12;;;;;;;6.00;4.40;;;;;;;20.33;77.92;95441.92;107017;1274;22523;-77
2023/09/19 10:44:43;;;;;;;9.80;4.60;;;;;;;20.45;78.20;95439.77;106797;1274;24502;-76
2023/09/19 10:54:59;;;;;;;15.80;9.60;;;;;;;20.74;78.01;95441.46;103648;1306;545570;-76
2023/09/19 10:57:28;;;;;;;10.80;6.20;;;;;;;20.85;76.90;95437.17;106597;1282;22536;-77
2023/09/19 11:00:26;;;;;;;11.00;5.70;;;;;;;20.95;76.53;95435.30;106509;1282;22666;-77
2023/09/19 11:03:23;;;;;;;11.20;5.20;;;;;;;21.00;76.17;95420.17;106401;1267;22533;-77
2023/09/19 11:06:09;;;;;;;9.20;5.60;;;;;;;21.11;76.03;95425.55;106233;1270;22712;-76
2023/09/19 11:11:50;;;;;;;11.00;6.30;;;;;;;21.27;75.95;95424.01;106594;1279;22608;-77
2023/09/19 11:14:24;;;;;;;10.60;5.70;;;;;;;21.40;76.19;95423.91;106283;1279;24060;-76
2023/09/19 11:17:11;;;;;;;7.00;5.50;;;;;;;21.50;75.40;95431.30;106327;1279;22602;-76
2023/09/19 11:22:58;;;;;;;7.70;5.30;;;;;;;21.55;75.56;95425.83;106331;1279;25447;-76
2023/09/19 11:25:29;;;;;;;8.90;5.50;;;;;;;21.65;75.53;95428.40;106358;1279;24414;-76
2023/09/19 11:28:05;;;;;;;7.30;5.00;;;;;;;21.70;74.59;95426.27;106446;1279;22737;-77
2023/09/19 11:30:37;;;;;;;7.60;4.80;;;;;;;21.65;74.43;95410.34;106240;1279;22601;-76
2023/09/19 11:33:33;;;;;;;6.70;4.70;;;;;;;21.62;74.59;95405.16;106254;1279;22540;-77
2023/09/19 11:36:08;;;;;;;7.10;5.30;;;;;;;21.94;75.61;95390.52;106737;1275;22540;-76
2023/09/19 11:38:43;;;;;;;7.40;4.80;;;;;;;22.57;74.64;95388.79;106685;1275;22534;-77
2023/09/19 11:41:31;;;;;;;9.00;5.00;;;;;;;23.26;72.33;95385.36;106730;1271;25514;-77
2023/09/19 11:44:00;;;;;;;9.30;5.40;;;;;;;23.63;70.44;95381.98;106633;1275;22651;-77
2023/09/19 11:46:31;;;;;;;8.60;5.40;;;;;;;23.80;69.33;95380.36;106702;1275;22525;-76
2023/09/19 11:49:13;;;;;;;6.00;5.20;;;;;;;23.75;66.82;95380.71;106730;1275;22547;-76
2023/09/19 11:51:47;;;;;;;11.70;5.50;;;;;;;23.65;66.82;95381.97;106642;1275;25236;-77
2023/09/19 11:54:18;;;;;;;8.00;5.40;;;;;;;23.43;66.38;95386.66;106685;1275;22542;-77
2023/09/19 11:56:50;;;;;;;11.30;5.30;;;;;;;23.21;67.36;95396.29;106689;1275;25426;-77
2023/09/19 11:59:30;;;;;;;13.20;6.20;;;;;;;23.04;67.80;95401.10;106684;1275;22520;-77
2023/09/19 12:02:03;;;;;;;11.10;5.70;;;;;;;22.79;68.08;95394.27;106681;1275;25461;-77
2023/09/19 12:04:43;;;;;;;9.60;6.20;;;;;;;22.63;68.93;95397.32;106640;1275;24217;-77
2023/09/19 12:07:16;;;;;;;9.40;5.60;;;;;;;22.56;69.64;95392.27;106757;1275;26551;-76
2023/09/19 12:09:47;;;;;;;11.70;6.10;;;;;;;22.34;69.78;95371.56;106622;1275;22526;-76
2023/09/19 12:12:27;;;;;;;9.90;5.60;;;;;;;22.04;70.68;95372.61;106744;1275;25353;-77